Flight Track Log - Related Links

Times and Time Zones

All times are in EDT time to prevent confusion due to time zone crossing. See the GJS3706 flight status page for this flight to view local times or setup timezone preferences in your user account.

Time Position Orientation Groundspeed Altitude Reporting Facility
EDT Latitude Longitude Course Direction KTS MPH feet Rate Location/Type
Thu 12:01:31 PM 44.4406 -73.1306 254° West 135 155 2,800  Level Boston Center
Thu 12:02:35 PM 44.4178 -73.1944 243° Southwest 190 219 4,300 1,920 Climbing Boston Center
Thu 12:03:36 PM 44.4014 -73.2914 257° West 234 269 6,800 2,777 Climbing Boston Center
Thu 12:04:36 PM 44.3864 -73.3847 257° West 246 283 9,900 2,300 Climbing Boston Center
Thu 12:05:36 PM 44.3719 -73.4786 258° West 249 287 11,400 1,180 Climbing Boston Center
Thu 12:07:00 PM 44.3914 -73.9372 254° West  Level Estimated
Thu 12:07:39 PM 44.3339 -73.7289 258° West 333 383 13,500  Level Boston Center
Thu 12:08:41 PM 44.3131 -73.8631 258° West 347 399 15,200 1,707 Climbing Boston Center
Thu 12:09:42 PM 44.2936 -73.9936 258° West 345 397 17,000 1,500 Climbing Boston Center
Thu 12:10:45 PM 44.2736 -74.1242 258° West 346 398 18,300 1,113 Climbing Boston Center
Thu 12:11:46 PM 44.2525 -74.2561 257° West 352 405 19,300 984 Climbing Boston Center
Thu 12:12:47 PM 44.2311 -74.3914 258° West 357 411 20,300 984 Climbing Boston Center
Thu 12:13:48 PM 44.2100 -74.5311 258° West 367 422 21,300 1,082 Climbing Boston Center
Thu 12:14:49 PM 44.1814 -74.7039 257° West 380 437 22,500 1,082 Climbing Boston Center
Thu 12:15:50 PM 44.1581 -74.8475 257° West 381 438 23,500 960 Climbing Boston Center
Thu 12:16:54 PM 44.1344 -74.9950 257° West 390 449 24,500 960 Climbing Boston Center
Thu 12:17:55 PM 44.1092 -75.1378 256° West 385 443 25,500 992 Climbing Boston Center
Thu 12:18:55 PM 44.0847 -75.2847 257° West 390 449 26,500 893 Climbing Boston Center
Thu 12:19:56 PM 44.0608 -75.4303 257° West 389 448 27,300 768 Climbing Boston Center
Thu 12:21:00 PM 44.0367 -75.5753 257° West 389 448 28,100 864 Climbing Boston Center
Thu 12:22:01 PM 44.0069 -75.7456 256° West 381 438 29,100 885 Climbing Boston Center
Thu 12:23:02 PM 43.9819 -75.8886 256° West 385 443 29,900 689 Climbing Boston Center
Thu 12:24:03 PM 43.9569 -76.0294 256° West 380 437 30,500 541 Climbing Boston Center
Thu 12:25:04 PM 43.9428 -76.1725 262° West 377 434 31,000 528 Climbing Boston Center
Thu 12:26:08 PM 43.9289 -76.3172 262° West 380 437 31,600 581 Climbing Boston Center
Thu 12:27:08 PM 43.9167 -76.4619 263° West 378 435 32,200 595 Climbing Boston Center
Thu 12:28:09 PM 43.9033 -76.6072 263° West 382 440 32,800 842 Climbing Boston Center
Thu 12:29:02 PM 43.8833 -76.7333 258° West 370 426 33,800 1,053 Climbing Toronto Center
Thu 12:30:03 PM 43.8667 -76.8833 261° West 370 426 34,800 1,041 Climbing Toronto Center
Thu 12:31:03 PM 43.8500 -77.0000 259° West 360 414 35,900 600 Climbing Toronto Center
Thu 12:32:03 PM 43.8333 -77.1333 260° West 350 403 36,000 100 Climbing Toronto Center
Thu 12:33:03 PM 43.8167 -77.2833 261° West 350 403 36,100  Climbing Toronto Center
Thu 12:34:03 PM 43.8167 -77.4167 270° West 360 414 36,000 -50 Descending Toronto Center
Thu 12:35:03 PM 43.8000 -77.5500 260° West 360 414 36,000  Level Toronto Center
Thu 12:36:03 PM 43.7833 -77.7000 261° West 360 414 36,000  Level Toronto Center
Thu 12:37:03 PM 43.7667 -77.8333 260° West 360 414 36,000  Level Toronto Center
Thu 12:38:03 PM 43.7500 -77.9667 260° West 360 414 36,000  Level Toronto Center
Thu 12:39:03 PM 43.7333 -78.1167 261° West 360 414 36,000  Level Toronto Center
Thu 12:40:03 PM 43.7167 -78.2500 260° West 360 414 36,000  Level Toronto Center
Thu 12:42:03 PM 43.7000 -78.5333 265° West 360 414 36,000  Level Toronto Center
Thu 12:43:03 PM 43.6833 -78.6333 257° West 350 403 36,000  Level Toronto Center
Thu 12:44:03 PM 43.6833 -78.7833 270° West 350 403 36,000  Level Toronto Center
Thu 12:45:03 PM 43.6667 -78.9167 260° West 350 403 36,000  Level Toronto Center
Thu 12:46:03 PM 43.6500 -79.0500 260° West 350 403 36,000  Level Toronto Center
Thu 12:47:03 PM 43.6333 -79.2000 261° West 350 403 36,000  Level Toronto Center
Thu 12:48:03 PM 43.6167 -79.3167 259° West 350 403 36,000  Level Toronto Center
Thu 12:49:03 PM 43.6167 -79.4500 270° West 340 391 36,000  Level Toronto Center
Thu 12:50:03 PM 43.6000 -79.5833 260° West 350 403 36,000  Level Toronto Center
Thu 12:51:03 PM 43.5833 -79.7000 259° West 350 403 36,000  Level Toronto Center
Thu 12:52:03 PM 43.5667 -79.8333 260° West 350 403 36,000  Level Toronto Center
Thu 12:53:03 PM 43.5500 -79.9833 261° West 340 391 36,000  Level Toronto Center
Thu 12:54:03 PM 43.5500 -80.1000 270° West 340 391 36,000  Level Toronto Center
Thu 12:55:03 PM 43.5333 -80.2333 260° West 340 391 36,000  Level Toronto Center
Thu 12:56:03 PM 43.5167 -80.3500 259° West 330 380 36,000  Level Toronto Center
Thu 12:57:03 PM 43.5167 -80.4833 270° West 330 380 36,000  Level Toronto Center
Thu 12:58:03 PM 43.5000 -80.6167 260° West 330 380 36,000  Level Toronto Center
Thu 12:59:03 PM 43.4833 -80.7333 259° West 340 391 36,000  Level Toronto Center
Thu 01:00:03 PM 43.4500 -80.8667 251° West 340 391 36,000  Level Toronto Center
Thu 01:01:03 PM 43.4500 -80.9833 270° West 340 391 36,000  Level Toronto Center
Thu 01:02:03 PM 43.4333 -81.1333 261° West 340 391 36,000  Level Toronto Center
Thu 01:03:03 PM 43.4167 -81.2333 257° West 340 391 36,000  Level Toronto Center
Thu 01:04:03 PM 43.4000 -81.3833 261° West 330 380 36,000  Level Toronto Center
Thu 01:05:03 PM 43.3833 -81.4833 257° West 340 391 36,000  Level Toronto Center
Thu 01:06:03 PM 43.3833 -81.6333 270° West 340 391 36,000  Level Toronto Center
Thu 01:07:03 PM 43.3667 -81.7500 259° West 340 391 36,000  Level Toronto Center
Thu 01:08:03 PM 43.3500 -81.8833 260° West 340 391 36,000  Level Toronto Center
Thu 01:09:03 PM 43.3167 -82.0000 249° West 330 380 36,000  Level Toronto Center
Thu 01:10:03 PM 43.3167 -82.1333 270° West 330 380 36,000  Level Toronto Center
Thu 01:11:03 PM 43.3000 -82.2500 259° West 320 368 36,000  Level Toronto Center
Thu 01:12:03 PM 43.2833 -82.3667 259° West 320 368 36,000  Level Toronto Center
Thu 01:12:38 PM 43.2900 -82.4381 277° West 321 369 36,000  Level Cleveland Center
Thu 01:13:40 PM 43.2747 -82.5578 260° West 320 368 36,000  Level Cleveland Center
Thu 01:14:42 PM 43.2561 -82.7022 260° West 322 371 36,000  Level Cleveland Center
Thu 01:15:44 PM 43.2269 -82.8144 250° West 314 361 36,000 -339 Level Cleveland Center
Thu 01:16:46 PM 43.1950 -82.9292 249° West 322 371 35,300 -823 Descending Cleveland Center
Thu 01:17:48 PM 43.1644 -83.0414 250° West 318 366 34,300 -968 Descending Cleveland Center
Thu 01:18:50 PM 43.1314 -83.1569 249° West 324 373 33,300 -968 Descending Cleveland Center
Thu 01:19:52 PM 43.0978 -83.2775 249° West 338 389 32,300 -871 Descending Cleveland Center
Thu 01:20:54 PM 43.0556 -83.4275 249° West 351 404 31,500 -629 Descending Cleveland Center
Thu 01:21:56 PM 43.0231 -83.5506 250° West 348 400 31,000 -484 Descending Cleveland Center
Thu 01:22:58 PM 43.0606 -83.6603 295° West 323 372 30,500 -484 Descending Cleveland Center
Thu 01:24:00 PM 43.0778 -83.7661 283° West 311 358 30,000 -484 Descending Cleveland Center
Thu 01:25:02 PM 43.0508 -83.8733 251° West 303 349 29,500 -532 Descending Cleveland Center
Thu 01:26:04 PM 43.0222 -83.9994 253° West 293 337 28,900 -532 Descending Cleveland Center
Thu 01:27:06 PM 42.9967 -84.1053 252° West 295 339 28,400 -484 Descending Cleveland Center
Thu 01:28:08 PM 42.9722 -84.2111 253° West 295 339 27,900 -871 Descending Cleveland Center
Thu 01:29:10 PM 42.9472 -84.3194 253° West 299 344 26,600 -1,452 Descending Cleveland Center
Thu 01:30:12 PM 42.9200 -84.4361 252° West 300 345 24,900 -1,768 Descending Cleveland Center
Thu 01:30:45 PM 42.9044 -84.5006 252° West 299 344 23,800 -1,768 Descending Chicago Center
Thu 01:31:47 PM 42.8819 -84.6069 254° West 294 338 22,100 -1,597 Descending Chicago Center
Thu 01:32:49 PM 42.8711 -84.7158 262° West 291 335 20,500 -1,016 Descending Chicago Center
Thu 01:33:51 PM 42.8603 -84.8258 262° West 293 337 20,000 -242 Descending Chicago Center
Thu 01:34:53 PM 42.8483 -84.9356 262° West 293 337 20,000  Level Chicago Center
Thu 01:35:55 PM 42.8364 -85.0436 261° West 291 335 20,000  Level Chicago Center
Thu 01:36:57 PM 42.8228 -85.1753 262° West 292 336 20,000  Level Chicago Center
Thu 01:37:59 PM 42.8100 -85.2839 261° West 292 336 20,000  Level Chicago Center
Thu 01:39:01 PM 42.7989 -85.3906 262° West 288 331 20,000  Level Chicago Center
Thu 01:40:03 PM 42.7872 -85.4956 261° West 283 326 20,000  Level Chicago Center
Thu 01:41:05 PM 42.7667 -85.6117 256° West 303 349 20,000  Level Chicago Center
Thu 01:42:07 PM 42.7442 -85.7339 256° West 326 375 20,000  Level Chicago Center
Thu 01:43:09 PM 42.7225 -85.8525 256° West 325 374 20,000  Level Chicago Center
Thu 01:44:11 PM 42.7014 -85.9686 256° West 316 364 20,000  Level Chicago Center
Thu 01:45:13 PM 42.6742 -86.1194 256° West 336 387 20,000  Level Chicago Center
Thu 01:46:15 PM 42.6497 -86.2522 256° West 355 409 20,000  Level Chicago Center
Thu 01:47:17 PM 42.6247 -86.3808 255° West 352 405 20,000 -435 Level Chicago Center
Thu 01:48:19 PM 42.6008 -86.5089 256° West 351 404 19,100 -1,065 Descending Chicago Center
Thu 01:49:21 PM 42.5761 -86.6336 255° West 345 397 17,800 -1,161 Descending Chicago Center
Thu 01:50:23 PM 42.5503 -86.7697 256° West 349 402 16,700 -1,161 Descending Chicago Center
Thu 01:51:25 PM 42.5125 -86.9053 249° West 344 396 15,400 -1,210 Descending Chicago Center
Thu 01:52:27 PM 42.4811 -87.0217 250° West 334 384 14,200 -1,355 Descending Chicago Center
Thu 01:53:29 PM 42.4481 -87.1347 248° West 326 375 12,600 -1,839 Descending Chicago Center
Thu 01:54:31 PM 42.4158 -87.2453 248° West 320 368 10,400 -1,645 Descending Chicago Center
Thu 01:55:33 PM 42.3447 -87.2483 182° South 274 315 9,200 -1,113 Descending Chicago Center
Thu 01:56:35 PM 42.2678 -87.2281 169° South 268 308 8,100 -1,016 Descending Chicago Center
Thu 01:57:37 PM 42.1953 -87.2078 168° South 267 307 7,100 -532 Descending Chicago Center
Thu 01:58:39 PM 42.1125 -87.1828 167° South 257 296 7,000 -48 Descending Chicago Center
Thu 01:59:41 PM 42.0428 -87.1975 189° South 255 293 7,000  Level Chicago Center
Thu 02:00:43 PM 41.9936 -87.2647 225° Southwest 258 297 7,000  Level Chicago Center
Thu 02:01:45 PM 41.9847 -87.3475 262° West 232 267 7,000 -48 Level Chicago Center
Thu 02:02:47 PM 41.9825 -87.4225 268° West 207 238 6,900 -290 Descending Chicago Center
Thu 02:03:49 PM 41.9828 -87.4928 270° West 192 221 6,400 -919 Descending Chicago Center
Thu 02:04:51 PM 41.9833 -87.5778 271° West 192 221 5,000 -1,113 Descending Chicago Center
Thu 02:05:53 PM 41.9842 -87.6500 271° West 191 220 4,100 -952 Descending Chicago Center
Thu 02:06:57 PM 41.9833 -87.7333 269° West 184 212 3,000 -1,016 Descending Chicago TRACON
Thu 02:07:57 PM 41.9833 -87.8000 270° West 178 205 2,000 -850 Descending Chicago TRACON
Thu 02:08:57 PM 41.9833 -87.8500 270° West 142 163 1,300 -700 Descending Chicago TRACON

Login

Don't have an account? Register now (free) for customized features, flight alerts, and more!